createdAt,value
2019-02-07T00:01:03.595Z,26.47
2019-02-07T00:06:07.844Z,25.40
2019-02-07T00:11:12.015Z,19.57
2019-02-07T00:16:16.264Z,25.60
2019-02-07T00:21:21.713Z,20.50
2019-02-07T00:26:26.055Z,20.70
2019-02-07T00:31:30.260Z,20.10
2019-02-07T00:36:34.469Z,18.27
2019-02-07T00:41:38.675Z,25.63
2019-02-07T00:46:42.869Z,22.23
2019-02-07T00:51:47.070Z,23.80
2019-02-07T00:56:51.632Z,29.17
2019-02-07T01:01:55.834Z,23.50
2019-02-07T01:07:00.101Z,25.77
2019-02-07T01:12:04.539Z,17.50
2019-02-07T01:17:08.722Z,22.50
2019-02-07T01:22:12.919Z,33.97
2019-02-07T01:27:17.106Z,31.00
2019-02-07T01:32:21.302Z,32.37
2019-02-07T01:37:25.663Z,31.70
2019-02-07T01:42:29.866Z,29.17
2019-02-07T01:47:34.058Z,30.60
2019-02-07T01:52:38.334Z,25.63
2019-02-07T01:57:43.010Z,29.30
2019-02-07T02:02:47.231Z,26.73
2019-02-07T02:07:51.402Z,23.77
2019-02-07T02:12:55.674Z,22.63
2019-02-07T02:17:59.996Z,20.77
2019-02-07T02:23:04.404Z,24.00
2019-02-07T02:28:08.643Z,21.57
2019-02-07T02:33:14.219Z,27.93
2019-02-07T02:38:18.511Z,21.97
2019-02-07T02:43:22.757Z,22.50
2019-02-07T02:48:26.941Z,21.33
2019-02-07T02:53:31.150Z,21.67
2019-02-07T02:58:35.352Z,23.97
2019-02-07T03:03:58.806Z,18.63
2019-02-07T03:09:20.860Z,24.83
2019-02-07T03:14:38.032Z,21.10
2019-02-07T03:19:51.681Z,23.27
2019-02-07T03:25:22.475Z,22.67
2019-02-07T03:30:38.855Z,24.43
2019-02-07T03:36:03.819Z,22.87
2019-02-07T03:41:27.546Z,22.37
2019-02-07T03:46:51.118Z,21.80
2019-02-07T03:52:13.311Z,18.43
2019-02-07T03:57:37.254Z,19.40
2019-02-07T04:02:59.332Z,19.83
2019-02-07T04:08:23.343Z,23.67
2019-02-07T04:13:45.351Z,22.47
2019-02-07T04:19:16.038Z,21.17
2019-02-07T04:24:57.807Z,19.90
2019-02-07T04:30:13.368Z,18.97
2019-02-07T04:35:26.791Z,20.60
2019-02-07T04:40:50.129Z,20.53
2019-02-07T04:46:26.724Z,29.73
2019-02-07T04:51:40.466Z,17.03
2019-02-07T04:57:09.975Z,20.43
2019-02-07T05:02:35.898Z,22.20
2019-02-07T05:07:59.405Z,12.37
2019-02-07T05:13:41.577Z,25.20
2019-02-07T05:19:21.008Z,23.30
2019-02-07T05:24:37.596Z,25.17
2019-02-07T05:29:51.321Z,25.10
2019-02-07T05:35:10.042Z,20.17
2019-02-07T05:40:21.646Z,22.43
2019-02-07T05:46:00.356Z,19.73
2019-02-07T05:51:29.655Z,27.77
2019-02-07T05:56:53.043Z,17.80
2019-02-07T06:02:22.644Z,21.67
2019-02-07T06:07:45.371Z,22.23
2019-02-07T06:13:07.653Z,5.37
2019-02-07T06:18:23.969Z,26.27
2019-02-07T06:23:47.047Z,29.93
2019-02-07T06:29:11.368Z,28.67
2019-02-07T06:34:30.343Z,25.07
2019-02-07T06:39:57.097Z,30.07
2019-02-07T06:45:16.578Z,29.13
2019-02-07T06:50:38.122Z,25.80
2019-02-07T06:56:04.547Z,19.60
2019-02-07T07:01:27.895Z,25.20
2019-02-07T07:06:46.294Z,22.00
2019-02-07T07:12:07.380Z,17.83
2019-02-07T07:17:39.256Z,29.07
2019-02-07T07:23:18.079Z,21.37
2019-02-07T07:28:57.942Z,25.70
2019-02-07T07:34:25.414Z,17.63
2019-02-07T07:39:58.284Z,25.10
2019-02-07T07:45:24.925Z,27.43
2019-02-07T07:50:47.138Z,26.57
2019-02-07T07:56:16.627Z,27.00
2019-02-07T08:01:39.442Z,16.23
2019-02-07T08:07:01.799Z,9.77
2019-02-07T08:12:21.356Z,21.97
2019-02-07T08:17:57.831Z,25.37
2019-02-07T08:23:25.037Z,28.37
2019-02-07T08:28:52.584Z,22.20
2019-02-07T08:34:14.913Z,17.30
2019-02-07T08:39:39.475Z,27.00
2019-02-07T08:45:01.254Z,33.57
2019-02-07T08:50:24.499Z,33.63
2019-02-07T08:55:55.239Z,37.43
2019-02-07T09:01:08.127Z,26.77
2019-02-07T09:06:22.911Z,30.27
2019-02-07T09:11:46.532Z,33.57
2019-02-07T09:17:07.200Z,23.20
2019-02-07T09:22:34.744Z,30.37
2019-02-07T09:27:50.699Z,27.57
2019-02-07T09:33:26.771Z,24.30
2019-02-07T09:38:47.591Z,18.10
2019-02-07T09:44:26.119Z,31.03
2019-02-07T09:49:39.914Z,24.87
2019-02-07T09:55:06.599Z,21.43
2019-02-07T10:00:24.580Z,30.43
2019-02-07T10:05:51.427Z,30.93
2019-02-07T10:11:18.930Z,27.00
2019-02-07T10:16:46.079Z,27.93
2019-02-07T10:22:06.332Z,31.37
2019-02-07T10:27:41.769Z,45.23
2019-02-07T10:33:00.472Z,40.13
2019-02-07T10:38:20.235Z,36.73
2019-02-07T10:43:41.799Z,30.13
2019-02-07T10:48:58.136Z,23.93
2019-02-07T10:54:21.391Z,42.27
2019-02-07T10:59:44.856Z,36.57
2019-02-07T11:05:08.994Z,31.07
2019-02-07T11:10:32.589Z,41.13
2019-02-07T11:16:05.260Z,30.30
2019-02-07T11:21:27.930Z,30.90
2019-02-07T11:26:58.154Z,30.27
2019-02-07T11:32:20.541Z,37.50
2019-02-07T11:37:42.839Z,34.03
2019-02-07T11:43:03.080Z,40.17
2019-02-07T11:48:40.535Z,24.90
2019-02-07T11:59:34.170Z,31.10
2019-02-07T12:05:03.331Z,35.43
2019-02-07T12:10:28.411Z,31.97
2019-02-07T12:15:47.139Z,33.27
2019-02-07T12:21:14.978Z,36.30
2019-02-07T12:26:36.967Z,36.27
2019-02-07T12:37:04.511Z,30.57
2019-02-07T12:42:28.596Z,40.07
2019-02-07T12:47:51.949Z,34.03
2019-02-07T12:53:31.506Z,37.37
2019-02-07T12:58:51.601Z,30.83
2019-02-07T13:04:14.967Z,35.57
2019-02-07T13:09:53.417Z,37.00
2019-02-07T13:15:21.974Z,32.30
2019-02-07T13:20:35.807Z,36.53
2019-02-07T13:26:17.475Z,44.30
2019-02-07T13:31:39.028Z,36.63
2019-02-07T13:37:05.642Z,35.80
2019-02-07T13:42:29.217Z,31.53
2019-02-07T13:47:58.591Z,38.37
2019-02-07T13:53:21.348Z,39.87
2019-02-07T13:58:38.167Z,33.47
2019-02-07T14:04:03.073Z,29.67
2019-02-07T14:09:26.003Z,35.83
2019-02-07T14:14:50.894Z,39.33
2019-02-07T14:20:11.061Z,32.97
2019-02-07T14:25:26.242Z,32.30
2019-02-07T14:30:48.162Z,37.73
2019-02-07T14:36:25.182Z,49.80
2019-02-07T14:41:47.254Z,42.33
2019-02-07T14:46:53.198Z,38.40
2019-02-07T14:51:57.453Z,45.77
2019-02-07T14:57:01.837Z,44.60
2019-02-07T15:02:06.157Z,46.57
2019-02-07T15:07:10.775Z,41.60
2019-02-07T15:12:16.524Z,50.13
2019-02-07T15:17:20.871Z,41.93
2019-02-07T15:22:25.211Z,50.67
2019-02-07T15:27:29.424Z,47.37
2019-02-07T15:32:34.921Z,37.47
2019-02-07T15:37:39.223Z,40.70
2019-02-07T15:42:43.540Z,38.10
2019-02-07T15:47:47.821Z,41.57
2019-02-07T15:52:53.376Z,39.63
2019-02-07T15:57:57.731Z,40.87
2019-02-07T16:03:06.663Z,41.03
2019-02-07T16:08:11.239Z,35.67
2019-02-07T16:13:16.434Z,39.63
2019-02-07T16:18:20.683Z,39.57
2019-02-07T16:23:25.736Z,38.57
2019-02-07T16:28:30.151Z,40.43
2019-02-07T16:38:50.704Z,44.20
2019-02-07T16:43:55.419Z,37.00
2019-02-07T16:48:59.691Z,39.03
2019-02-07T16:59:18.923Z,37.00
2019-02-07T17:04:24.531Z,37.73
2019-02-07T17:09:39.387Z,47.60
2019-02-07T17:14:44.143Z,38.90
2019-02-07T17:19:48.410Z,37.63
2019-02-07T17:24:53.950Z,37.03
2019-02-07T17:29:58.200Z,39.27
2019-02-07T17:35:03.012Z,39.03
2019-02-07T17:40:09.165Z,44.93
2019-02-07T17:50:30.272Z,39.33
2019-02-07T17:55:34.713Z,35.37
2019-02-07T18:00:50.084Z,41.17
2019-02-07T18:05:54.451Z,32.37
2019-02-07T18:10:58.756Z,43.73
2019-02-07T18:16:03.963Z,38.60
2019-02-07T18:21:08.198Z,45.40
2019-02-07T18:26:13.283Z,43.03
2019-02-07T18:31:17.638Z,44.63
2019-02-07T18:36:22.178Z,45.43
2019-02-07T18:41:26.570Z,46.57
2019-02-07T18:46:30.945Z,50.57
2019-02-07T18:51:44.948Z,42.27
2019-02-07T18:56:42.459Z,49.27
2019-02-07T19:01:47.468Z,42.43
2019-02-07T19:06:52.838Z,47.23
2019-02-07T19:11:57.194Z,38.17
2019-02-07T19:17:03.113Z,39.43
2019-02-07T19:22:07.638Z,39.53
2019-02-07T19:27:13.244Z,42.43
2019-02-07T19:32:17.472Z,45.57
2019-02-07T19:37:23.002Z,40.13
2019-02-07T19:42:27.206Z,40.57
2019-02-07T19:47:31.804Z,38.90
2019-02-07T19:52:36.269Z,42.60
2019-02-07T19:57:43.451Z,46.73
2019-02-07T20:02:48.193Z,42.37
2019-02-07T20:07:53.713Z,39.50
2019-02-07T20:12:58.163Z,48.63
2019-02-07T20:18:02.882Z,38.80
2019-02-07T20:23:07.206Z,35.50
2019-02-07T20:28:13.087Z,42.23
2019-02-07T20:33:17.354Z,48.27
2019-02-07T20:38:21.707Z,43.77
2019-02-07T20:43:26.019Z,35.00
2019-02-07T20:48:30.296Z,32.60
2019-02-07T20:53:34.571Z,41.23
2019-02-07T20:58:39.151Z,39.80
2019-02-07T21:03:43.472Z,37.60
2019-02-07T21:08:49.137Z,42.37
2019-02-07T21:13:53.453Z,46.17
2019-02-07T21:18:58.773Z,43.37
2019-02-07T21:24:03.083Z,34.73
2019-02-07T21:29:08.746Z,35.17
2019-02-07T21:34:13.421Z,30.37
2019-02-07T21:39:18.563Z,36.23
2019-02-07T21:44:22.856Z,40.10
2019-02-07T21:49:27.082Z,42.00
2019-02-07T21:54:31.479Z,35.47
2019-02-07T21:59:36.823Z,34.93
2019-02-07T22:04:42.350Z,40.90
2019-02-07T22:09:46.566Z,33.93
2019-02-07T22:14:50.838Z,38.50
2019-02-07T22:19:55.029Z,35.63
2019-02-07T22:24:59.760Z,28.93
2019-02-07T22:30:05.595Z,34.07
2019-02-07T22:35:09.811Z,40.97
2019-02-07T22:40:15.174Z,38.70
2019-02-07T22:45:19.984Z,41.37
2019-02-07T22:50:25.177Z,33.33
2019-02-07T22:55:29.466Z,35.10
2019-02-07T23:01:11.843Z,41.37
2019-02-07T23:06:16.056Z,36.50
2019-02-07T23:11:21.307Z,37.13
2019-02-07T23:16:25.584Z,30.40
2019-02-07T23:21:29.930Z,32.63
2019-02-07T23:26:34.203Z,31.13
2019-02-07T23:31:39.284Z,26.83
2019-02-07T23:36:43.486Z,30.33
2019-02-07T23:41:47.733Z,38.03
2019-02-07T23:46:51.926Z,44.00
2019-02-07T23:51:56.225Z,37.57
2019-02-07T23:57:00.428Z,30.07
